sensor_id;sensor_type;location;lat;lon;timestamp;P1;durP1;ratioP1;P2;durP2;ratioP2
4047;SDS011;2038;51.728;6.674;2022-09-09T00:01:28;3.03;;;1.70;;
4047;SDS011;2038;51.728;6.674;2022-09-09T00:10:09;2.07;;;1.30;;
4047;SDS011;2038;51.728;6.674;2022-09-09T00:19:00;1.70;;;1.10;;
4047;SDS011;2038;51.728;6.674;2022-09-09T00:21:54;2.03;;;1.30;;
4047;SDS011;2038;51.728;6.674;2022-09-09T00:27:45;1.93;;;1.27;;
4047;SDS011;2038;51.728;6.674;2022-09-09T00:30:18;2.30;;;1.33;;
4047;SDS011;2038;51.728;6.674;2022-09-09T00:32:54;1.60;;;1.33;;
4047;SDS011;2038;51.728;6.674;2022-09-09T00:35:34;2.80;;;1.30;;
4047;SDS011;2038;51.728;6.674;2022-09-09T00:38:12;1.53;;;1.43;;
4047;SDS011;2038;51.728;6.674;2022-09-09T00:43:26;3.17;;;1.50;;
4047;SDS011;2038;51.728;6.674;2022-09-09T00:57:44;3.67;;;2.20;;
4047;SDS011;2038;51.728;6.674;2022-09-09T01:05:48;3.43;;;2.30;;
4047;SDS011;2038;51.728;6.674;2022-09-09T01:08:53;1.77;;;1.67;;
4047;SDS011;2038;51.728;6.674;2022-09-09T01:11:59;2.60;;;1.63;;
4047;SDS011;2038;51.728;6.674;2022-09-09T01:14:45;2.87;;;1.77;;
4047;SDS011;2038;51.728;6.674;2022-09-09T01:17:21;1.70;;;1.60;;
4047;SDS011;2038;51.728;6.674;2022-09-09T01:20:17;2.23;;;1.70;;
4047;SDS011;2038;51.728;6.674;2022-09-09T01:23:24;6.33;;;2.30;;
4047;SDS011;2038;51.728;6.674;2022-09-09T01:26:45;2.50;;;1.80;;
4047;SDS011;2038;51.728;6.674;2022-09-09T01:29:17;2.50;;;1.80;;
4047;SDS011;2038;51.728;6.674;2022-09-09T01:35:14;2.63;;;1.70;;
4047;SDS011;2038;51.728;6.674;2022-09-09T01:38:09;1.93;;;1.60;;
4047;SDS011;2038;51.728;6.674;2022-09-09T01:40:36;1.97;;;1.67;;
4047;SDS011;2038;51.728;6.674;2022-09-09T01:43:03;1.70;;;1.60;;
4047;SDS011;2038;51.728;6.674;2022-09-09T01:45:31;2.13;;;1.93;;
4047;SDS011;2038;51.728;6.674;2022-09-09T01:47:58;2.13;;;1.83;;
4047;SDS011;2038;51.728;6.674;2022-09-09T01:50:25;1.70;;;1.60;;
4047;SDS011;2038;51.728;6.674;2022-09-09T01:52:56;6.20;;;2.40;;
4047;SDS011;2038;51.728;6.674;2022-09-09T01:55:31;2.73;;;2.17;;
4047;SDS011;2038;51.728;6.674;2022-09-09T02:01:16;3.03;;;2.17;;
4047;SDS011;2038;51.728;6.674;2022-09-09T02:04:18;7.30;;;2.20;;
4047;SDS011;2038;51.728;6.674;2022-09-09T02:07:06;2.60;;;1.87;;
4047;SDS011;2038;51.728;6.674;2022-09-09T02:12:53;2.30;;;1.93;;
4047;SDS011;2038;51.728;6.674;2022-09-09T02:18:33;4.53;;;2.37;;
4047;SDS011;2038;51.728;6.674;2022-09-09T02:21:05;1.67;;;1.57;;
4047;SDS011;2038;51.728;6.674;2022-09-09T02:23:36;1.80;;;1.60;;
4047;SDS011;2038;51.728;6.674;2022-09-09T02:26:07;3.10;;;2.13;;
4047;SDS011;2038;51.728;6.674;2022-09-09T02:28:39;4.97;;;2.07;;
4047;SDS011;2038;51.728;6.674;2022-09-09T02:31:07;2.27;;;2.07;;
4047;SDS011;2038;51.728;6.674;2022-09-09T02:33:36;4.07;;;2.40;;
4047;SDS011;2038;51.728;6.674;2022-09-09T02:36:09;2.40;;;2.20;;
4047;SDS011;2038;51.728;6.674;2022-09-09T02:38:42;2.73;;;2.50;;
4047;SDS011;2038;51.728;6.674;2022-09-09T02:41:17;3.77;;;3.00;;
4047;SDS011;2038;51.728;6.674;2022-09-09T02:43:47;6.50;;;2.97;;
4047;SDS011;2038;51.728;6.674;2022-09-09T02:46:22;7.00;;;4.80;;
4047;SDS011;2038;51.728;6.674;2022-09-09T02:51:47;7.80;;;3.77;;
4047;SDS011;2038;51.728;6.674;2022-09-09T02:54:32;5.90;;;5.00;;
4047;SDS011;2038;51.728;6.674;2022-09-09T02:59:44;8.63;;;4.00;;
4047;SDS011;2038;51.728;6.674;2022-09-09T03:02:12;5.87;;;3.90;;
4047;SDS011;2038;51.728;6.674;2022-09-09T03:04:38;6.37;;;4.40;;
4047;SDS011;2038;51.728;6.674;2022-09-09T03:07:06;6.20;;;4.90;;
4047;SDS011;2038;51.728;6.674;2022-09-09T03:09:32;5.20;;;4.70;;
4047;SDS011;2038;51.728;6.674;2022-09-09T03:11:59;4.03;;;3.63;;
4047;SDS011;2038;51.728;6.674;2022-09-09T03:14:25;8.13;;;5.40;;
4047;SDS011;2038;51.728;6.674;2022-09-09T03:16:51;10.93;;;4.97;;
4047;SDS011;2038;51.728;6.674;2022-09-09T03:19:19;5.93;;;5.33;;
4047;SDS011;2038;51.728;6.674;2022-09-09T03:21:46;10.00;;;6.20;;
4047;SDS011;2038;51.728;6.674;2022-09-09T03:24:13;6.53;;;5.00;;
4047;SDS011;2038;51.728;6.674;2022-09-09T03:26:40;5.80;;;5.23;;
4047;SDS011;2038;51.728;6.674;2022-09-09T03:29:09;6.43;;;5.10;;
4047;SDS011;2038;51.728;6.674;2022-09-09T03:31:37;5.67;;;5.10;;
4047;SDS011;2038;51.728;6.674;2022-09-09T03:34:04;4.80;;;4.30;;
4047;SDS011;2038;51.728;6.674;2022-09-09T03:36:31;4.90;;;4.50;;
4047;SDS011;2038;51.728;6.674;2022-09-09T03:38:58;6.70;;;5.03;;
4047;SDS011;2038;51.728;6.674;2022-09-09T03:41:25;8.47;;;5.27;;
4047;SDS011;2038;51.728;6.674;2022-09-09T03:43:52;7.67;;;5.00;;
4047;SDS011;2038;51.728;6.674;2022-09-09T03:46:20;6.10;;;5.57;;
4047;SDS011;2038;51.728;6.674;2022-09-09T03:48:48;5.50;;;4.93;;
4047;SDS011;2038;51.728;6.674;2022-09-09T03:51:15;5.57;;;4.70;;
4047;SDS011;2038;51.728;6.674;2022-09-09T03:53:42;9.87;;;5.97;;
4047;SDS011;2038;51.728;6.674;2022-09-09T03:56:09;4.70;;;4.30;;
4047;SDS011;2038;51.728;6.674;2022-09-09T03:58:36;6.10;;;5.17;;
4047;SDS011;2038;51.728;6.674;2022-09-09T04:01:03;6.10;;;5.07;;
4047;SDS011;2038;51.728;6.674;2022-09-09T04:03:39;5.40;;;4.90;;
4047;SDS011;2038;51.728;6.674;2022-09-09T04:06:06;6.33;;;5.20;;
4047;SDS011;2038;51.728;6.674;2022-09-09T04:08:35;5.23;;;4.50;;
4047;SDS011;2038;51.728;6.674;2022-09-09T04:11:03;7.03;;;5.60;;
4047;SDS011;2038;51.728;6.674;2022-09-09T04:13:31;5.00;;;4.50;;
4047;SDS011;2038;51.728;6.674;2022-09-09T04:16:04;6.83;;;4.97;;
4047;SDS011;2038;51.728;6.674;2022-09-09T04:18:31;5.60;;;4.83;;
4047;SDS011;2038;51.728;6.674;2022-09-09T04:20:57;6.07;;;5.00;;
4047;SDS011;2038;51.728;6.674;2022-09-09T04:23:26;6.43;;;4.87;;
4047;SDS011;2038;51.728;6.674;2022-09-09T04:25:57;6.53;;;4.70;;
4047;SDS011;2038;51.728;6.674;2022-09-09T04:28:25;4.40;;;4.00;;
4047;SDS011;2038;51.728;6.674;2022-09-09T04:30:54;6.70;;;4.73;;
4047;SDS011;2038;51.728;6.674;2022-09-09T04:33:24;7.50;;;4.80;;
4047;SDS011;2038;51.728;6.674;2022-09-09T04:35:51;5.63;;;4.77;;
4047;SDS011;2038;51.728;6.674;2022-09-09T04:38:20;5.70;;;4.23;;
4047;SDS011;2038;51.728;6.674;2022-09-09T04:40:48;4.73;;;4.20;;
4047;SDS011;2038;51.728;6.674;2022-09-09T04:43:16;10.30;;;5.10;;
4047;SDS011;2038;51.728;6.674;2022-09-09T04:45:47;4.63;;;4.07;;
4047;SDS011;2038;51.728;6.674;2022-09-09T04:48:16;6.43;;;3.70;;
4047;SDS011;2038;51.728;6.674;2022-09-09T04:50:43;8.80;;;3.77;;
4047;SDS011;2038;51.728;6.674;2022-09-09T04:53:09;8.70;;;4.27;;
4047;SDS011;2038;51.728;6.674;2022-09-09T04:55:35;6.17;;;4.03;;
4047;SDS011;2038;51.728;6.674;2022-09-09T04:58:03;12.37;;;4.30;;
4047;SDS011;2038;51.728;6.674;2022-09-09T05:00:31;7.63;;;4.70;;
4047;SDS011;2038;51.728;6.674;2022-09-09T05:03:03;4.53;;;3.80;;
4047;SDS011;2038;51.728;6.674;2022-09-09T05:05:31;6.67;;;3.47;;
4047;SDS011;2038;51.728;6.674;2022-09-09T05:08:01;6.07;;;3.60;;
4047;SDS011;2038;51.728;6.674;2022-09-09T05:10:31;4.10;;;3.43;;
4047;SDS011;2038;51.728;6.674;2022-09-09T05:12:58;5.57;;;3.67;;
4047;SDS011;2038;51.728;6.674;2022-09-09T05:15:25;5.77;;;3.00;;
4047;SDS011;2038;51.728;6.674;2022-09-09T05:17:51;4.43;;;3.53;;
4047;SDS011;2038;51.728;6.674;2022-09-09T05:20:18;5.77;;;3.70;;
4047;SDS011;2038;51.728;6.674;2022-09-09T05:22:44;8.23;;;3.23;;
4047;SDS011;2038;51.728;6.674;2022-09-09T05:25:10;7.00;;;2.70;;
4047;SDS011;2038;51.728;6.674;2022-09-09T05:27:37;6.60;;;3.60;;
4047;SDS011;2038;51.728;6.674;2022-09-09T05:30:03;6.57;;;3.90;;
4047;SDS011;2038;51.728;6.674;2022-09-09T05:32:30;4.00;;;2.90;;
4047;SDS011;2038;51.728;6.674;2022-09-09T05:34:59;6.23;;;2.93;;
4047;SDS011;2038;51.728;6.674;2022-09-09T05:37:26;4.90;;;3.60;;
4047;SDS011;2038;51.728;6.674;2022-09-09T05:39:52;6.53;;;2.80;;
4047;SDS011;2038;51.728;6.674;2022-09-09T05:42:18;6.37;;;3.07;;
4047;SDS011;2038;51.728;6.674;2022-09-09T05:44:45;8.23;;;3.30;;
4047;SDS011;2038;51.728;6.674;2022-09-09T05:47:11;3.73;;;3.00;;
4047;SDS011;2038;51.728;6.674;2022-09-09T05:49:37;3.00;;;2.50;;
4047;SDS011;2038;51.728;6.674;2022-09-09T05:52:03;7.00;;;3.30;;
4047;SDS011;2038;51.728;6.674;2022-09-09T05:54:30;13.00;;;3.57;;
4047;SDS011;2038;51.728;6.674;2022-09-09T05:56:57;10.90;;;2.80;;
4047;SDS011;2038;51.728;6.674;2022-09-09T05:59:24;4.07;;;2.80;;
4047;SDS011;2038;51.728;6.674;2022-09-09T06:01:50;4.10;;;2.83;;
4047;SDS011;2038;51.728;6.674;2022-09-09T06:04:17;7.03;;;3.33;;
4047;SDS011;2038;51.728;6.674;2022-09-09T06:06:43;3.80;;;2.90;;
4047;SDS011;2038;51.728;6.674;2022-09-09T06:09:09;4.43;;;2.83;;
4047;SDS011;2038;51.728;6.674;2022-09-09T06:11:37;7.23;;;2.93;;
4047;SDS011;2038;51.728;6.674;2022-09-09T06:14:05;9.23;;;3.30;;
4047;SDS011;2038;51.728;6.674;2022-09-09T06:16:32;7.17;;;3.40;;
4047;SDS011;2038;51.728;6.674;2022-09-09T06:19:00;8.60;;;2.83;;
4047;SDS011;2038;51.728;6.674;2022-09-09T06:21:30;9.47;;;3.30;;
4047;SDS011;2038;51.728;6.674;2022-09-09T06:24:02;5.40;;;2.90;;
4047;SDS011;2038;51.728;6.674;2022-09-09T06:26:34;4.03;;;2.80;;
4047;SDS011;2038;51.728;6.674;2022-09-09T06:29:04;10.63;;;3.40;;
4047;SDS011;2038;51.728;6.674;2022-09-09T06:31:31;8.83;;;2.60;;
4047;SDS011;2038;51.728;6.674;2022-09-09T06:34:00;4.57;;;3.10;;
4047;SDS011;2038;51.728;6.674;2022-09-09T06:36:31;10.67;;;3.20;;
4047;SDS011;2038;51.728;6.674;2022-09-09T06:39:00;9.20;;;3.60;;
4047;SDS011;2038;51.728;6.674;2022-09-09T06:41:27;7.40;;;3.33;;
4047;SDS011;2038;51.728;6.674;2022-09-09T06:43:56;5.90;;;2.67;;
4047;SDS011;2038;51.728;6.674;2022-09-09T06:46:23;7.20;;;3.10;;
4047;SDS011;2038;51.728;6.674;2022-09-09T06:48:57;8.00;;;3.17;;
4047;SDS011;2038;51.728;6.674;2022-09-09T06:51:28;8.20;;;3.23;;
4047;SDS011;2038;51.728;6.674;2022-09-09T06:54:00;8.07;;;3.57;;
4047;SDS011;2038;51.728;6.674;2022-09-09T06:56:35;6.37;;;3.30;;
4047;SDS011;2038;51.728;6.674;2022-09-09T06:59:07;14.23;;;3.90;;
4047;SDS011;2038;51.728;6.674;2022-09-09T07:01:35;9.93;;;2.93;;
4047;SDS011;2038;51.728;6.674;2022-09-09T07:04:05;10.43;;;3.53;;
4047;SDS011;2038;51.728;6.674;2022-09-09T07:06:34;6.33;;;3.10;;
4047;SDS011;2038;51.728;6.674;2022-09-09T07:09:08;12.53;;;3.77;;
4047;SDS011;2038;51.728;6.674;2022-09-09T07:11:38;11.47;;;3.60;;
4047;SDS011;2038;51.728;6.674;2022-09-09T07:14:08;12.73;;;4.10;;
4047;SDS011;2038;51.728;6.674;2022-09-09T07:16:38;13.80;;;3.60;;
4047;SDS011;2038;51.728;6.674;2022-09-09T07:19:09;11.20;;;3.43;;
4047;SDS011;2038;51.728;6.674;2022-09-09T07:21:37;7.67;;;3.50;;
4047;SDS011;2038;51.728;6.674;2022-09-09T07:24:05;10.00;;;3.60;;
4047;SDS011;2038;51.728;6.674;2022-09-09T07:26:35;9.60;;;4.23;;
4047;SDS011;2038;51.728;6.674;2022-09-09T07:29:04;8.20;;;3.10;;
4047;SDS011;2038;51.728;6.674;2022-09-09T07:31:32;18.30;;;3.97;;
4047;SDS011;2038;51.728;6.674;2022-09-09T07:34:01;11.10;;;3.23;;
4047;SDS011;2038;51.728;6.674;2022-09-09T07:36:30;7.07;;;2.90;;
4047;SDS011;2038;51.728;6.674;2022-09-09T07:39:06;16.53;;;3.80;;
4047;SDS011;2038;51.728;6.674;2022-09-09T07:41:39;13.23;;;3.83;;
4047;SDS011;2038;51.728;6.674;2022-09-09T07:44:11;10.03;;;3.10;;
4047;SDS011;2038;51.728;6.674;2022-09-09T07:46:46;10.00;;;3.70;;
4047;SDS011;2038;51.728;6.674;2022-09-09T07:49:13;9.17;;;3.50;;
4047;SDS011;2038;51.728;6.674;2022-09-09T07:51:40;4.73;;;2.43;;
4047;SDS011;2038;51.728;6.674;2022-09-09T07:54:11;14.97;;;3.30;;
4047;SDS011;2038;51.728;6.674;2022-09-09T07:56:40;10.00;;;2.80;;
4047;SDS011;2038;51.728;6.674;2022-09-09T07:59:07;13.47;;;2.73;;
4047;SDS011;2038;51.728;6.674;2022-09-09T08:01:36;14.17;;;2.73;;
4047;SDS011;2038;51.728;6.674;2022-09-09T08:04:09;11.13;;;2.87;;
4047;SDS011;2038;51.728;6.674;2022-09-09T08:06:40;14.17;;;4.00;;
4047;SDS011;2038;51.728;6.674;2022-09-09T08:09:11;9.73;;;4.00;;
4047;SDS011;2038;51.728;6.674;2022-09-09T08:11:38;13.70;;;3.20;;
4047;SDS011;2038;51.728;6.674;2022-09-09T08:14:06;9.40;;;3.80;;
4047;SDS011;2038;51.728;6.674;2022-09-09T08:16:36;13.60;;;2.90;;
4047;SDS011;2038;51.728;6.674;2022-09-09T08:19:05;5.93;;;2.60;;
4047;SDS011;2038;51.728;6.674;2022-09-09T08:21:32;7.80;;;2.73;;
4047;SDS011;2038;51.728;6.674;2022-09-09T08:24:02;10.27;;;3.47;;
4047;SDS011;2038;51.728;6.674;2022-09-09T08:26:37;4.43;;;2.60;;
4047;SDS011;2038;51.728;6.674;2022-09-09T08:29:07;7.00;;;2.17;;
4047;SDS011;2038;51.728;6.674;2022-09-09T08:31:36;4.90;;;2.40;;
4047;SDS011;2038;51.728;6.674;2022-09-09T08:34:12;17.40;;;3.30;;
4047;SDS011;2038;51.728;6.674;2022-09-09T08:36:40;13.70;;;2.40;;
4047;SDS011;2038;51.728;6.674;2022-09-09T08:39:10;7.00;;;2.40;;
4047;SDS011;2038;51.728;6.674;2022-09-09T08:41:52;9.30;;;2.90;;
4047;SDS011;2038;51.728;6.674;2022-09-09T09:00:54;5.37;;;2.60;;
4047;SDS011;2038;51.728;6.674;2022-09-09T09:09:17;5.13;;;1.83;;
4047;SDS011;2038;51.728;6.674;2022-09-09T09:11:57;5.13;;;2.30;;
4047;SDS011;2038;51.728;6.674;2022-09-09T09:14:31;6.23;;;2.30;;
4047;SDS011;2038;51.728;6.674;2022-09-09T09:17:01;2.90;;;2.07;;
4047;SDS011;2038;51.728;6.674;2022-09-09T09:19:38;13.90;;;3.10;;
4047;SDS011;2038;51.728;6.674;2022-09-09T09:25:15;9.03;;;2.27;;
4047;SDS011;2038;51.728;6.674;2022-09-09T09:30:43;5.10;;;2.80;;
4047;SDS011;2038;51.728;6.674;2022-09-09T09:36:13;9.83;;;2.70;;
4047;SDS011;2038;51.728;6.674;2022-09-09T09:38:55;5.07;;;1.90;;
4047;SDS011;2038;51.728;6.674;2022-09-09T09:41:28;7.30;;;2.20;;
4047;SDS011;2038;51.728;6.674;2022-09-09T09:43:55;6.50;;;2.20;;
4047;SDS011;2038;51.728;6.674;2022-09-09T09:46:23;9.13;;;2.33;;
4047;SDS011;2038;51.728;6.674;2022-09-09T09:49:01;6.20;;;2.93;;
4047;SDS011;2038;51.728;6.674;2022-09-09T09:51:30;3.87;;;2.30;;
4047;SDS011;2038;51.728;6.674;2022-09-09T09:54:09;10.37;;;2.20;;
4047;SDS011;2038;51.728;6.674;2022-09-09T09:56:40;2.50;;;2.00;;
4047;SDS011;2038;51.728;6.674;2022-09-09T10:01:52;8.03;;;1.80;;
4047;SDS011;2038;51.728;6.674;2022-09-09T10:04:22;6.10;;;1.67;;
4047;SDS011;2038;51.728;6.674;2022-09-09T10:06:49;5.00;;;1.70;;
4047;SDS011;2038;51.728;6.674;2022-09-09T10:09:23;7.40;;;1.90;;
4047;SDS011;2038;51.728;6.674;2022-09-09T10:11:55;6.20;;;2.23;;
4047;SDS011;2038;51.728;6.674;2022-09-09T10:31:42;8.60;;;2.13;;
4047;SDS011;2038;51.728;6.674;2022-09-09T10:34:19;2.97;;;1.70;;
4047;SDS011;2038;51.728;6.674;2022-09-09T10:40:35;7.03;;;2.20;;
4047;SDS011;2038;51.728;6.674;2022-09-09T10:46:16;4.17;;;2.30;;
4047;SDS011;2038;51.728;6.674;2022-09-09T10:57:48;6.80;;;1.80;;
4047;SDS011;2038;51.728;6.674;2022-09-09T11:00:24;5.97;;;2.00;;
4047;SDS011;2038;51.728;6.674;2022-09-09T11:03:01;4.60;;;1.20;;
4047;SDS011;2038;51.728;6.674;2022-09-09T11:08:12;3.10;;;1.73;;
4047;SDS011;2038;51.728;6.674;2022-09-09T11:10:55;4.30;;;1.70;;
4047;SDS011;2038;51.728;6.674;2022-09-09T11:19:22;8.30;;;2.63;;
4047;SDS011;2038;51.728;6.674;2022-09-09T11:22:07;3.40;;;1.70;;
4047;SDS011;2038;51.728;6.674;2022-09-09T11:25:08;7.30;;;2.10;;
4047;SDS011;2038;51.728;6.674;2022-09-09T11:34:03;2.70;;;1.70;;
4047;SDS011;2038;51.728;6.674;2022-09-09T11:40:20;6.80;;;2.13;;
4047;SDS011;2038;51.728;6.674;2022-09-09T11:43:03;3.93;;;1.83;;
4047;SDS011;2038;51.728;6.674;2022-09-09T11:45:43;7.40;;;1.60;;
4047;SDS011;2038;51.728;6.674;2022-09-09T11:48:31;7.83;;;2.40;;
4047;SDS011;2038;51.728;6.674;2022-09-09T11:53:52;5.90;;;2.10;;
4047;SDS011;2038;51.728;6.674;2022-09-09T11:56:32;5.30;;;1.90;;
4047;SDS011;2038;51.728;6.674;2022-09-09T12:02:03;8.43;;;2.20;;
4047;SDS011;2038;51.728;6.674;2022-09-09T12:04:54;8.07;;;2.03;;
4047;SDS011;2038;51.728;6.674;2022-09-09T12:07:41;5.10;;;2.20;;
4047;SDS011;2038;51.728;6.674;2022-09-09T12:10:23;4.83;;;2.10;;
4047;SDS011;2038;51.728;6.674;2022-09-09T12:15:51;4.97;;;1.87;;
4047;SDS011;2038;51.728;6.674;2022-09-09T12:18:23;6.10;;;2.20;;
4047;SDS011;2038;51.728;6.674;2022-09-09T12:23:59;2.63;;;1.33;;
4047;SDS011;2038;51.728;6.674;2022-09-09T12:26:41;8.30;;;2.20;;
4047;SDS011;2038;51.728;6.674;2022-09-09T12:29:28;9.30;;;2.07;;
4047;SDS011;2038;51.728;6.674;2022-09-09T12:32:17;8.33;;;2.90;;
4047;SDS011;2038;51.728;6.674;2022-09-09T12:34:54;9.30;;;2.13;;
4047;SDS011;2038;51.728;6.674;2022-09-09T12:37:35;5.10;;;1.80;;
4047;SDS011;2038;51.728;6.674;2022-09-09T12:42:51;5.63;;;2.57;;
4047;SDS011;2038;51.728;6.674;2022-09-09T12:45:24;12.27;;;3.17;;
4047;SDS011;2038;51.728;6.674;2022-09-09T12:48:04;5.00;;;2.63;;
4047;SDS011;2038;51.728;6.674;2022-09-09T12:50:37;6.33;;;2.67;;
4047;SDS011;2038;51.728;6.674;2022-09-09T12:56:01;4.17;;;2.10;;
4047;SDS011;2038;51.728;6.674;2022-09-09T12:58:44;5.30;;;2.20;;
4047;SDS011;2038;51.728;6.674;2022-09-09T13:01:24;4.43;;;2.20;;
4047;SDS011;2038;51.728;6.674;2022-09-09T13:03:50;3.87;;;2.27;;
4047;SDS011;2038;51.728;6.674;2022-09-09T13:06:22;3.37;;;2.10;;
4047;SDS011;2038;51.728;6.674;2022-09-09T13:08:53;5.20;;;2.00;;
4047;SDS011;2038;51.728;6.674;2022-09-09T13:11:36;6.83;;;2.80;;
4047;SDS011;2038;51.728;6.674;2022-09-09T13:14:19;5.60;;;2.77;;
4047;SDS011;2038;51.728;6.674;2022-09-09T13:17:00;5.93;;;2.83;;
4047;SDS011;2038;51.728;6.674;2022-09-09T13:19:31;3.73;;;2.90;;
4047;SDS011;2038;51.728;6.674;2022-09-09T13:22:12;10.17;;;3.13;;
4047;SDS011;2038;51.728;6.674;2022-09-09T13:25:27;8.53;;;3.13;;
4047;SDS011;2038;51.728;6.674;2022-09-09T13:27:53;2.97;;;2.60;;
4047;SDS011;2038;51.728;6.674;2022-09-09T13:30:28;10.23;;;3.07;;
4047;SDS011;2038;51.728;6.674;2022-09-09T13:38:23;5.07;;;2.60;;
4047;SDS011;2038;51.728;6.674;2022-09-09T13:40:52;7.17;;;3.90;;
4047;SDS011;2038;51.728;6.674;2022-09-09T13:43:31;14.20;;;3.47;;
4047;SDS011;2038;51.728;6.674;2022-09-09T13:46:24;5.87;;;3.40;;
4047;SDS011;2038;51.728;6.674;2022-09-09T13:51:37;9.07;;;3.10;;
4047;SDS011;2038;51.728;6.674;2022-09-09T13:54:15;8.20;;;2.97;;
4047;SDS011;2038;51.728;6.674;2022-09-09T13:56:45;7.53;;;3.00;;
4047;SDS011;2038;51.728;6.674;2022-09-09T13:59:12;9.30;;;3.60;;
4047;SDS011;2038;51.728;6.674;2022-09-09T14:01:47;4.80;;;2.60;;
4047;SDS011;2038;51.728;6.674;2022-09-09T14:04:17;5.50;;;2.60;;
4047;SDS011;2038;51.728;6.674;2022-09-09T14:06:46;6.83;;;2.90;;
4047;SDS011;2038;51.728;6.674;2022-09-09T14:09:14;6.80;;;3.20;;
4047;SDS011;2038;51.728;6.674;2022-09-09T14:11:44;8.27;;;2.30;;
4047;SDS011;2038;51.728;6.674;2022-09-09T14:14:11;11.87;;;2.93;;
4047;SDS011;2038;51.728;6.674;2022-09-09T14:16:37;5.13;;;2.43;;
4047;SDS011;2038;51.728;6.674;2022-09-09T14:19:03;2.50;;;2.30;;
4047;SDS011;2038;51.728;6.674;2022-09-09T14:21:29;5.77;;;2.57;;
4047;SDS011;2038;51.728;6.674;2022-09-09T14:23:57;10.03;;;2.37;;
4047;SDS011;2038;51.728;6.674;2022-09-09T14:26:24;7.90;;;2.60;;
4047;SDS011;2038;51.728;6.674;2022-09-09T14:28:53;4.57;;;2.10;;
4047;SDS011;2038;51.728;6.674;2022-09-09T14:31:21;4.03;;;2.20;;
4047;SDS011;2038;51.728;6.674;2022-09-09T14:33:50;4.00;;;2.27;;
4047;SDS011;2038;51.728;6.674;2022-09-09T14:36:19;9.40;;;2.53;;
4047;SDS011;2038;51.728;6.674;2022-09-09T14:38:49;7.37;;;2.83;;
4047;SDS011;2038;51.728;6.674;2022-09-09T14:41:16;9.00;;;2.47;;
4047;SDS011;2038;51.728;6.674;2022-09-09T14:43:47;5.50;;;1.87;;
4047;SDS011;2038;51.728;6.674;2022-09-09T14:46:15;7.93;;;2.00;;
4047;SDS011;2038;51.728;6.674;2022-09-09T14:48:44;6.67;;;2.20;;
4047;SDS011;2038;51.728;6.674;2022-09-09T14:53:48;4.00;;;2.00;;
4047;SDS011;2038;51.728;6.674;2022-09-09T14:56:21;3.97;;;2.27;;
4047;SDS011;2038;51.728;6.674;2022-09-09T14:58:54;8.70;;;2.37;;
4047;SDS011;2038;51.728;6.674;2022-09-09T15:01:24;3.40;;;1.53;;
4047;SDS011;2038;51.728;6.674;2022-09-09T15:03:55;3.50;;;2.00;;
4047;SDS011;2038;51.728;6.674;2022-09-09T15:06:25;6.17;;;2.27;;
4047;SDS011;2038;51.728;6.674;2022-09-09T15:08:56;4.73;;;1.53;;
4047;SDS011;2038;51.728;6.674;2022-09-09T15:11:23;3.83;;;1.67;;
4047;SDS011;2038;51.728;6.674;2022-09-09T15:13:52;3.93;;;1.80;;
4047;SDS011;2038;51.728;6.674;2022-09-09T15:16:20;2.20;;;1.33;;
4047;SDS011;2038;51.728;6.674;2022-09-09T15:18:52;4.13;;;1.47;;
4047;SDS011;2038;51.728;6.674;2022-09-09T15:21:23;4.40;;;1.40;;
4047;SDS011;2038;51.728;6.674;2022-09-09T15:23:56;2.60;;;1.03;;
4047;SDS011;2038;51.728;6.674;2022-09-09T15:26:24;3.57;;;1.50;;
4047;SDS011;2038;51.728;6.674;2022-09-09T15:28:54;6.30;;;1.73;;
4047;SDS011;2038;51.728;6.674;2022-09-09T15:31:24;4.13;;;1.47;;
4047;SDS011;2038;51.728;6.674;2022-09-09T15:33:55;5.10;;;2.13;;
4047;SDS011;2038;51.728;6.674;2022-09-09T15:36:29;5.07;;;2.03;;
4047;SDS011;2038;51.728;6.674;2022-09-09T15:39:11;3.57;;;2.10;;
4047;SDS011;2038;51.728;6.674;2022-09-09T15:41:43;2.37;;;1.47;;
4047;SDS011;2038;51.728;6.674;2022-09-09T15:44:12;2.23;;;1.50;;
4047;SDS011;2038;51.728;6.674;2022-09-09T15:46:41;3.20;;;1.80;;
4047;SDS011;2038;51.728;6.674;2022-09-09T15:49:15;7.53;;;1.83;;
4047;SDS011;2038;51.728;6.674;2022-09-09T15:51:54;5.90;;;1.77;;
4047;SDS011;2038;51.728;6.674;2022-09-09T15:54:28;4.27;;;1.60;;
4047;SDS011;2038;51.728;6.674;2022-09-09T15:57:01;3.30;;;1.60;;
4047;SDS011;2038;51.728;6.674;2022-09-09T15:59:35;3.73;;;1.67;;
4047;SDS011;2038;51.728;6.674;2022-09-09T16:02:03;4.40;;;1.67;;
4047;SDS011;2038;51.728;6.674;2022-09-09T16:04:36;6.60;;;1.70;;
4047;SDS011;2038;51.728;6.674;2022-09-09T16:07:06;2.97;;;1.73;;
4047;SDS011;2038;51.728;6.674;2022-09-09T16:09:33;5.53;;;1.87;;
4047;SDS011;2038;51.728;6.674;2022-09-09T16:12:04;3.83;;;2.20;;
4047;SDS011;2038;51.728;6.674;2022-09-09T16:14:31;4.83;;;1.80;;
4047;SDS011;2038;51.728;6.674;2022-09-09T16:17:04;4.00;;;1.90;;
4047;SDS011;2038;51.728;6.674;2022-09-09T16:19:33;2.27;;;1.47;;
4047;SDS011;2038;51.728;6.674;2022-09-09T16:21:59;4.13;;;2.13;;
4047;SDS011;2038;51.728;6.674;2022-09-09T16:24:27;3.40;;;2.07;;
4047;SDS011;2038;51.728;6.674;2022-09-09T16:26:54;3.57;;;1.83;;
4047;SDS011;2038;51.728;6.674;2022-09-09T16:29:21;3.47;;;2.20;;
4047;SDS011;2038;51.728;6.674;2022-09-09T16:31:49;4.57;;;2.70;;
4047;SDS011;2038;51.728;6.674;2022-09-09T16:34:16;2.70;;;1.73;;
4047;SDS011;2038;51.728;6.674;2022-09-09T16:36:43;5.60;;;2.10;;
4047;SDS011;2038;51.728;6.674;2022-09-09T16:39:12;6.50;;;2.23;;
4047;SDS011;2038;51.728;6.674;2022-09-09T16:41:45;4.60;;;2.47;;
4047;SDS011;2038;51.728;6.674;2022-09-09T16:44:14;3.77;;;2.27;;
4047;SDS011;2038;51.728;6.674;2022-09-09T16:46:46;3.57;;;2.10;;
4047;SDS011;2038;51.728;6.674;2022-09-09T16:49:16;3.30;;;2.20;;
4047;SDS011;2038;51.728;6.674;2022-09-09T16:51:46;4.23;;;2.00;;
4047;SDS011;2038;51.728;6.674;2022-09-09T16:54:18;9.37;;;2.07;;
4047;SDS011;2038;51.728;6.674;2022-09-09T16:56:45;2.60;;;2.07;;
4047;SDS011;2038;51.728;6.674;2022-09-09T16:59:14;5.10;;;1.93;;
4047;SDS011;2038;51.728;6.674;2022-09-09T17:01:44;3.70;;;2.37;;
4047;SDS011;2038;51.728;6.674;2022-09-09T17:04:15;4.77;;;2.50;;
4047;SDS011;2038;51.728;6.674;2022-09-09T17:06:46;6.43;;;2.50;;
4047;SDS011;2038;51.728;6.674;2022-09-09T17:09:14;6.93;;;2.63;;
4047;SDS011;2038;51.728;6.674;2022-09-09T17:11:41;4.87;;;2.50;;
4047;SDS011;2038;51.728;6.674;2022-09-09T17:14:09;6.90;;;1.97;;
4047;SDS011;2038;51.728;6.674;2022-09-09T17:16:41;4.73;;;2.87;;
4047;SDS011;2038;51.728;6.674;2022-09-09T17:19:08;4.00;;;2.80;;
4047;SDS011;2038;51.728;6.674;2022-09-09T17:21:36;6.23;;;3.20;;
4047;SDS011;2038;51.728;6.674;2022-09-09T17:24:03;3.67;;;2.50;;
4047;SDS011;2038;51.728;6.674;2022-09-09T17:26:30;3.77;;;2.40;;
4047;SDS011;2038;51.728;6.674;2022-09-09T17:28:58;5.83;;;2.20;;
4047;SDS011;2038;51.728;6.674;2022-09-09T17:31:27;3.13;;;2.13;;
4047;SDS011;2038;51.728;6.674;2022-09-09T17:33:55;7.03;;;3.00;;
4047;SDS011;2038;51.728;6.674;2022-09-09T17:36:24;8.23;;;3.37;;
4047;SDS011;2038;51.728;6.674;2022-09-09T17:38:58;4.97;;;2.63;;
4047;SDS011;2038;51.728;6.674;2022-09-09T17:41:29;5.90;;;2.77;;
4047;SDS011;2038;51.728;6.674;2022-09-09T17:43:59;3.80;;;1.37;;
4047;SDS011;2038;51.728;6.674;2022-09-09T17:46:26;13.23;;;1.73;;
4047;SDS011;2038;51.728;6.674;2022-09-09T17:48:57;2.20;;;1.00;;
4047;SDS011;2038;51.728;6.674;2022-09-09T17:51:27;4.43;;;1.27;;
4047;SDS011;2038;51.728;6.674;2022-09-09T17:53:57;6.20;;;1.60;;
4047;SDS011;2038;51.728;6.674;2022-09-09T17:56:34;6.30;;;1.37;;
4047;SDS011;2038;51.728;6.674;2022-09-09T17:59:03;3.47;;;2.27;;
4047;SDS011;2038;51.728;6.674;2022-09-09T18:01:35;5.50;;;1.97;;
4047;SDS011;2038;51.728;6.674;2022-09-09T18:04:05;6.23;;;2.13;;
4047;SDS011;2038;51.728;6.674;2022-09-09T18:06:39;2.70;;;1.57;;
4047;SDS011;2038;51.728;6.674;2022-09-09T18:09:13;3.10;;;1.73;;
4047;SDS011;2038;51.728;6.674;2022-09-09T18:11:48;2.80;;;1.30;;
4047;SDS011;2038;51.728;6.674;2022-09-09T18:14:19;3.57;;;1.93;;
4047;SDS011;2038;51.728;6.674;2022-09-09T18:16:50;3.83;;;1.90;;
4047;SDS011;2038;51.728;6.674;2022-09-09T18:19:19;4.63;;;1.63;;
4047;SDS011;2038;51.728;6.674;2022-09-09T18:21:49;3.83;;;1.90;;
4047;SDS011;2038;51.728;6.674;2022-09-09T18:24:17;3.20;;;1.40;;
4047;SDS011;2038;51.728;6.674;2022-09-09T18:26:46;2.67;;;1.60;;
4047;SDS011;2038;51.728;6.674;2022-09-09T18:29:18;3.53;;;1.57;;
4047;SDS011;2038;51.728;6.674;2022-09-09T18:31:48;3.50;;;1.60;;